sensor_id;sensor_type;location;lat;lon;timestamp;pressure;altitude;pressure_sealevel;temperature;humidity
71504;BME280;59323;50.874;7.028;2022-11-06T00:00:21;101414.16;;;7.50;90.58
71504;BME280;59323;50.874;7.028;2022-11-06T00:02:47;101409.88;;;7.49;90.52
71504;BME280;59323;50.874;7.028;2022-11-06T00:05:13;101406.25;;;7.45;90.56
71504;BME280;59323;50.874;7.028;2022-11-06T00:07:57;101392.91;;;7.40;90.32
71504;BME280;59323;50.874;7.028;2022-11-06T00:10:22;101393.06;;;7.44;90.62
71504;BME280;59323;50.874;7.028;2022-11-06T00:12:48;101407.50;;;7.48;91.08
71504;BME280;59323;50.874;7.028;2022-11-06T00:15:14;101403.22;;;7.47;90.58
71504;BME280;59323;50.874;7.028;2022-11-06T00:17:40;101405.13;;;7.46;90.73
71504;BME280;59323;50.874;7.028;2022-11-06T00:20:06;101413.38;;;7.50;90.74
71504;BME280;59323;50.874;7.028;2022-11-06T00:22:33;101414.03;;;7.47;90.48
71504;BME280;59323;50.874;7.028;2022-11-06T00:24:59;101407.03;;;7.46;90.60
71504;BME280;59323;50.874;7.028;2022-11-06T00:27:24;101407.50;;;7.48;90.84
71504;BME280;59323;50.874;7.028;2022-11-06T00:29:49;101404.66;;;7.44;91.07
71504;BME280;59323;50.874;7.028;2022-11-06T00:32:16;101416.41;;;7.48;91.21
71504;BME280;59323;50.874;7.028;2022-11-06T00:34:41;101407.03;;;7.46;91.17
71504;BME280;59323;50.874;7.028;2022-11-06T00:37:06;101413.09;;;7.43;90.70
71504;BME280;59323;50.874;7.028;2022-11-06T00:39:32;101413.88;;;7.43;90.95
71504;BME280;59323;50.874;7.028;2022-11-06T00:41:57;101406.25;;;7.45;90.97
71504;BME280;59323;50.874;7.028;2022-11-06T00:44:22;101401.16;;;7.44;91.00
71504;BME280;59323;50.874;7.028;2022-11-06T00:46:48;101400.69;;;7.42;91.20
71504;BME280;59323;50.874;7.028;2022-11-06T00:49:13;101401.50;;;7.42;91.12
71504;BME280;59323;50.874;7.028;2022-11-06T00:51:38;101413.75;;;7.40;91.14
71504;BME280;59323;50.874;7.028;2022-11-06T00:54:06;101417.56;;;7.39;91.15
71504;BME280;59323;50.874;7.028;2022-11-06T00:56:32;101424.41;;;7.36;91.03
71504;BME280;59323;50.874;7.028;2022-11-06T00:58:59;101426.00;;;7.37;91.40
71504;BME280;59323;50.874;7.028;2022-11-06T01:01:44;101426.66;;;7.34;91.55
71504;BME280;59323;50.874;7.028;2022-11-06T01:04:11;101425.53;;;7.35;91.35
71504;BME280;59323;50.874;7.028;2022-11-06T01:06:39;101411.09;;;7.31;91.38
71504;BME280;59323;50.874;7.028;2022-11-06T01:09:06;101421.25;;;7.34;91.55
71504;BME280;59323;50.874;7.028;2022-11-06T01:11:39;101422.19;;;7.38;91.33
71504;BME280;59323;50.874;7.028;2022-11-06T01:14:06;101419.66;;;7.33;91.63
71504;BME280;59323;50.874;7.028;2022-11-06T01:16:33;101423.47;;;7.32;91.45
71504;BME280;59323;50.874;7.028;2022-11-06T01:19:00;101409.19;;;7.31;91.73
71504;BME280;59323;50.874;7.028;2022-11-06T01:21:29;101406.78;;;7.30;90.95
71504;BME280;59323;50.874;7.028;2022-11-06T01:24:00;101407.25;;;7.32;90.84
71504;BME280;59323;50.874;7.028;2022-11-06T01:26:27;101414.25;;;7.33;91.13
71504;BME280;59323;50.874;7.028;2022-11-06T01:28:54;101404.56;;;7.32;91.35
71504;BME280;59323;50.874;7.028;2022-11-06T01:31:22;101410.63;;;7.29;91.38
71504;BME280;59323;50.874;7.028;2022-11-06T01:33:48;101407.44;;;7.27;91.58
71504;BME280;59323;50.874;7.028;2022-11-06T01:36:15;101400.47;;;7.26;90.81
71504;BME280;59323;50.874;7.028;2022-11-06T01:38:42;101410.00;;;7.23;91.36
71504;BME280;59323;50.874;7.028;2022-11-06T01:41:11;101401.09;;;7.23;91.26
71504;BME280;59323;50.874;7.028;2022-11-06T01:43:48;101397.63;;;7.22;91.45
71504;BME280;59323;50.874;7.028;2022-11-06T01:46:15;101379.00;;;7.21;91.29
71504;BME280;59323;50.874;7.028;2022-11-06T01:48:44;101376.63;;;7.19;91.69
71504;BME280;59323;50.874;7.028;2022-11-06T01:51:12;101377.13;;;7.13;91.65
71504;BME280;59323;50.874;7.028;2022-11-06T01:53:38;101372.69;;;7.17;91.10
71504;BME280;59323;50.874;7.028;2022-11-06T01:56:06;101368.53;;;7.11;91.96
71504;BME280;59323;50.874;7.028;2022-11-06T01:58:35;101359.50;;;7.07;91.58
71504;BME280;59323;50.874;7.028;2022-11-06T02:01:02;101355.16;;;7.14;91.24
71504;BME280;59323;50.874;7.028;2022-11-06T02:03:28;101340.56;;;7.15;91.60
71504;BME280;59323;50.874;7.028;2022-11-06T02:05:53;101335.47;;;7.14;91.39
71504;BME280;59323;50.874;7.028;2022-11-06T02:08:21;101342.44;;;7.15;91.39
71504;BME280;59323;50.874;7.028;2022-11-06T02:10:48;101347.38;;;7.13;91.68
71504;BME280;59323;50.874;7.028;2022-11-06T02:13:36;101352.31;;;7.11;91.64
71504;BME280;59323;50.874;7.028;2022-11-06T02:24:20;101356.66;;;7.03;91.51
71504;BME280;59323;50.874;7.028;2022-11-06T02:30:02;101349.81;;;7.06;91.78
71504;BME280;59323;50.874;7.028;2022-11-06T02:32:34;101340.31;;;6.99;91.42
71504;BME280;59323;50.874;7.028;2022-11-06T02:35:30;101343.31;;;6.98;91.78
71504;BME280;59323;50.874;7.028;2022-11-06T02:37:57;101339.38;;;6.95;92.21
71504;BME280;59323;50.874;7.028;2022-11-06T02:40:29;101351.09;;;6.99;91.64
71504;BME280;59323;50.874;7.028;2022-11-06T02:42:58;101353.03;;;6.99;92.19
71504;BME280;59323;50.874;7.028;2022-11-06T02:45:25;101349.53;;;6.98;91.62
71504;BME280;59323;50.874;7.028;2022-11-06T02:47:54;101350.31;;;6.99;92.23
71504;BME280;59323;50.874;7.028;2022-11-06T02:50:25;101342.69;;;7.01;91.92
71504;BME280;59323;50.874;7.028;2022-11-06T02:52:57;101337.59;;;6.99;92.00
71504;BME280;59323;50.874;7.028;2022-11-06T02:55:40;101330.16;;;6.96;92.39
71504;BME280;59323;50.874;7.028;2022-11-06T02:58:11;101321.84;;;7.02;92.04
71504;BME280;59323;50.874;7.028;2022-11-06T03:00:41;101321.72;;;6.98;91.96
71504;BME280;59323;50.874;7.028;2022-11-06T03:03:15;101322.84;;;6.97;91.74
71504;BME280;59323;50.874;7.028;2022-11-06T03:05:51;101333.97;;;6.95;91.81
71504;BME280;59323;50.874;7.028;2022-11-06T03:08:49;101340.16;;;6.96;92.33
71504;BME280;59323;50.874;7.028;2022-11-06T03:11:24;101335.41;;;6.93;92.06
71504;BME280;59323;50.874;7.028;2022-11-06T03:14:06;101333.81;;;6.92;92.28
71504;BME280;59323;50.874;7.028;2022-11-06T03:19:45;101340.63;;;6.98;92.19
71504;BME280;59323;50.874;7.028;2022-11-06T03:22:13;101335.56;;;6.96;91.75
71504;BME280;59323;50.874;7.028;2022-11-06T03:27:22;101312.34;;;6.95;92.42
71504;BME280;59323;50.874;7.028;2022-11-06T03:29:59;101296.13;;;6.95;92.04
71504;BME280;59323;50.874;7.028;2022-11-06T03:32:34;101301.34;;;7.00;92.22
71504;BME280;59323;50.874;7.028;2022-11-06T03:38:07;101312.97;;;7.01;92.23
71504;BME280;59323;50.874;7.028;2022-11-06T03:40:42;101314.88;;;7.00;91.82
71504;BME280;59323;50.874;7.028;2022-11-06T03:43:35;101335.84;;;7.04;91.88
71504;BME280;59323;50.874;7.028;2022-11-06T03:46:17;101334.44;;;6.97;91.92
71504;BME280;59323;50.874;7.028;2022-11-06T03:48:54;101333.50;;;6.93;91.81
71504;BME280;59323;50.874;7.028;2022-11-06T03:54:01;101349.56;;;6.90;91.97
71504;BME280;59323;50.874;7.028;2022-11-06T03:59:16;101341.13;;;6.91;91.77
71504;BME280;59323;50.874;7.028;2022-11-06T04:05:27;101344.47;;;6.88;92.19
71504;BME280;59323;50.874;7.028;2022-11-06T04:30:02;101328.88;;;6.94;91.31
71504;BME280;59323;50.874;7.028;2022-11-06T04:33:00;101329.69;;;6.94;91.06
71504;BME280;59323;50.874;7.028;2022-11-06T04:35:36;101330.31;;;6.91;91.20
71504;BME280;59323;50.874;7.028;2022-11-06T04:38:11;101335.25;;;6.89;91.65
71504;BME280;59323;50.874;7.028;2022-11-06T04:40:50;101312.84;;;6.89;91.45
71504;BME280;59323;50.874;7.028;2022-11-06T04:43:58;101309.97;;;6.94;91.29
71504;BME280;59323;50.874;7.028;2022-11-06T04:46:35;101298.38;;;6.93;90.67
71504;BME280;59323;50.874;7.028;2022-11-06T04:49:04;101301.53;;;6.95;91.06
71504;BME280;59323;50.874;7.028;2022-11-06T04:51:32;101294.88;;;6.93;91.35
71504;BME280;59323;50.874;7.028;2022-11-06T04:53:59;101287.09;;;6.91;91.15
71504;BME280;59323;50.874;7.028;2022-11-06T04:56:28;101283.28;;;6.92;91.32
71504;BME280;59323;50.874;7.028;2022-11-06T04:58:54;101286.44;;;6.94;90.86
71504;BME280;59323;50.874;7.028;2022-11-06T05:01:19;101283.75;;;6.94;90.92
71504;BME280;59323;50.874;7.028;2022-11-06T05:03:44;101275.97;;;6.93;90.73
71504;BME280;59323;50.874;7.028;2022-11-06T05:06:10;101268.19;;;6.91;90.91
71504;BME280;59323;50.874;7.028;2022-11-06T05:08:35;101265.81;;;6.90;91.34
71504;BME280;59323;50.874;7.028;2022-11-06T05:11:01;101255.19;;;6.85;91.27
71504;BME280;59323;50.874;7.028;2022-11-06T05:13:26;101250.72;;;6.89;91.07
71504;BME280;59323;50.874;7.028;2022-11-06T05:15:55;101260.28;;;6.86;91.23
71504;BME280;59323;50.874;7.028;2022-11-06T05:18:22;101258.03;;;6.88;91.42
71504;BME280;59323;50.874;7.028;2022-11-06T05:20:47;101261.06;;;6.87;91.11
71504;BME280;59323;50.874;7.028;2022-11-06T05:23:12;101243.13;;;6.82;91.24
71504;BME280;59323;50.874;7.028;2022-11-06T05:25:38;101250.44;;;6.82;91.41
71504;BME280;59323;50.874;7.028;2022-11-06T05:28:05;101243.59;;;6.84;91.08
71504;BME280;59323;50.874;7.028;2022-11-06T05:30:31;101233.91;;;6.83;91.27
71504;BME280;59323;50.874;7.028;2022-11-06T05:32:57;101233.13;;;6.83;91.17
71504;BME280;59323;50.874;7.028;2022-11-06T05:35:22;101222.00;;;6.84;91.09
71504;BME280;59323;50.874;7.028;2022-11-06T05:37:47;101220.09;;;6.85;90.96
71504;BME280;59323;50.874;7.028;2022-11-06T05:40:13;101222.31;;;6.83;90.95
71504;BME280;59323;50.874;7.028;2022-11-06T05:42:40;101230.09;;;6.84;90.86
71504;BME280;59323;50.874;7.028;2022-11-06T05:45:06;101224.38;;;6.86;91.26
71504;BME280;59323;50.874;7.028;2022-11-06T05:47:32;101221.06;;;6.80;91.24
71504;BME280;59323;50.874;7.028;2022-11-06T05:49:58;101208.34;;;6.81;91.33
71504;BME280;59323;50.874;7.028;2022-11-06T05:52:23;101205.66;;;6.81;91.13
71504;BME280;59323;50.874;7.028;2022-11-06T05:54:48;101190.88;;;6.78;91.38
71504;BME280;59323;50.874;7.028;2022-11-06T05:57:14;101187.66;;;6.85;90.90
71504;BME280;59323;50.874;7.028;2022-11-06T05:59:39;101182.72;;;6.87;91.06
71504;BME280;59323;50.874;7.028;2022-11-06T06:02:05;101190.84;;;6.87;90.54
71504;BME280;59323;50.874;7.028;2022-11-06T06:04:30;101199.25;;;6.85;90.68
71504;BME280;59323;50.874;7.028;2022-11-06T06:06:55;101184.63;;;6.86;91.15
71504;BME280;59323;50.874;7.028;2022-11-06T06:09:21;101180.03;;;6.87;91.21
71504;BME280;59323;50.874;7.028;2022-11-06T06:11:49;101181.16;;;6.86;90.42
71504;BME280;59323;50.874;7.028;2022-11-06T06:14:15;101179.88;;;6.83;91.08
71504;BME280;59323;50.874;7.028;2022-11-06T06:16:41;101180.03;;;6.87;90.94
71504;BME280;59323;50.874;7.028;2022-11-06T06:19:06;101173.84;;;6.86;91.02
71504;BME280;59323;50.874;7.028;2022-11-06T06:21:31;101173.84;;;6.86;90.62
71504;BME280;59323;50.874;7.028;2022-11-06T06:23:57;101176.53;;;6.86;90.63
71504;BME280;59323;50.874;7.028;2022-11-06T06:26:22;101164.63;;;6.87;90.48
71504;BME280;59323;50.874;7.028;2022-11-06T06:28:48;101162.38;;;6.89;91.07
71504;BME280;59323;50.874;7.028;2022-11-06T06:31:14;101163.03;;;6.86;91.24
71504;BME280;59323;50.874;7.028;2022-11-06T06:33:39;101159.00;;;6.92;90.88
71504;BME280;59323;50.874;7.028;2022-11-06T06:36:05;101156.31;;;6.92;90.68
71504;BME280;59323;50.874;7.028;2022-11-06T06:38:31;101161.84;;;6.96;90.41
71504;BME280;59323;50.874;7.028;2022-11-06T06:41:02;101166.59;;;6.99;90.83
71504;BME280;59323;50.874;7.028;2022-11-06T06:43:28;101169.63;;;6.97;90.64
71504;BME280;59323;50.874;7.028;2022-11-06T06:45:59;101176.94;;;6.97;90.79
71504;BME280;59323;50.874;7.028;2022-11-06T06:48:26;101174.22;;;6.97;91.68
71504;BME280;59323;50.874;7.028;2022-11-06T06:50:52;101177.25;;;6.95;91.36
71504;BME280;59323;50.874;7.028;2022-11-06T06:53:20;101175.56;;;6.91;91.25
71504;BME280;59323;50.874;7.028;2022-11-06T06:55:45;101184.44;;;6.91;91.34
71504;BME280;59323;50.874;7.028;2022-11-06T06:58:10;101192.09;;;6.89;91.19
71504;BME280;59323;50.874;7.028;2022-11-06T07:00:36;101187.66;;;6.85;91.23
71504;BME280;59323;50.874;7.028;2022-11-06T07:03:01;101194.97;;;6.84;91.17
71504;BME280;59323;50.874;7.028;2022-11-06T07:05:26;101197.94;;;6.91;91.17
71504;BME280;59323;50.874;7.028;2022-11-06T07:07:52;101196.84;;;6.92;91.41
71504;BME280;59323;50.874;7.028;2022-11-06T07:10:17;101192.88;;;6.90;91.80
71504;BME280;59323;50.874;7.028;2022-11-06T07:12:43;101203.69;;;6.90;91.96
71504;BME280;59323;50.874;7.028;2022-11-06T07:15:08;101202.03;;;6.97;91.77
71504;BME280;59323;50.874;7.028;2022-11-06T07:17:34;101193.63;;;6.99;90.91
71504;BME280;59323;50.874;7.028;2022-11-06T07:19:59;101189.91;;;7.04;91.11
71504;BME280;59323;50.874;7.028;2022-11-06T07:22:28;101192.28;;;7.05;91.64
71504;BME280;59323;50.874;7.028;2022-11-06T07:24:53;101189.72;;;7.09;91.50
71504;BME280;59323;50.874;7.028;2022-11-06T07:27:19;101190.03;;;7.16;91.89
71504;BME280;59323;50.874;7.028;2022-11-06T07:29:44;101183.50;;;7.17;91.43
71504;BME280;59323;50.874;7.028;2022-11-06T07:32:10;101193.44;;;7.25;91.46
71504;BME280;59323;50.874;7.028;2022-11-06T07:34:35;101180.19;;;7.32;91.12
71504;BME280;59323;50.874;7.028;2022-11-06T07:37:04;101182.22;;;7.35;90.94
71504;BME280;59323;50.874;7.028;2022-11-06T07:39:29;101189.22;;;7.36;91.36
71504;BME280;59323;50.874;7.028;2022-11-06T07:41:55;101191.25;;;7.39;90.99
71504;BME280;59323;50.874;7.028;2022-11-06T07:44:20;101193.22;;;7.51;91.38
71504;BME280;59323;50.874;7.028;2022-11-06T07:46:45;101192.69;;;7.57;90.39
71504;BME280;59323;50.874;7.028;2022-11-06T07:49:11;101190.09;;;7.61;91.03
71504;BME280;59323;50.874;7.028;2022-11-06T07:51:36;101188.91;;;7.71;90.50
71504;BME280;59323;50.874;7.028;2022-11-06T07:54:02;101180.78;;;7.71;90.40
71504;BME280;59323;50.874;7.028;2022-11-06T07:56:27;101187.56;;;7.77;90.55
71504;BME280;59323;50.874;7.028;2022-11-06T07:58:52;101191.91;;;7.90;90.09
71504;BME280;59323;50.874;7.028;2022-11-06T08:01:18;101186.50;;;8.02;89.31
71504;BME280;59323;50.874;7.028;2022-11-06T08:03:43;101179.44;;;8.22;89.23
71504;BME280;59323;50.874;7.028;2022-11-06T08:06:09;101181.63;;;8.41;88.84
71504;BME280;59323;50.874;7.028;2022-11-06T08:08:35;101181.41;;;8.58;88.03
71504;BME280;59323;50.874;7.028;2022-11-06T08:11:04;101167.06;;;8.70;87.04
71504;BME280;59323;50.874;7.028;2022-11-06T08:13:30;101168.75;;;8.74;87.26
71504;BME280;59323;50.874;7.028;2022-11-06T08:15:58;101159.50;;;8.75;86.53
71504;BME280;59323;50.874;7.028;2022-11-06T08:18:23;101156.72;;;9.00;86.39
71504;BME280;59323;50.874;7.028;2022-11-06T08:20:51;101139.66;;;9.11;85.61
71504;BME280;59323;50.874;7.028;2022-11-06T08:23:16;101148.41;;;9.33;84.64
71504;BME280;59323;50.874;7.028;2022-11-06T08:25:43;101139.50;;;9.48;84.72
71504;BME280;59323;50.874;7.028;2022-11-06T08:28:08;101136.56;;;9.69;84.33
71504;BME280;59323;50.874;7.028;2022-11-06T08:30:34;101126.91;;;9.83;82.41
71504;BME280;59323;50.874;7.028;2022-11-06T08:33:02;101129.69;;;10.03;81.94
71504;BME280;59323;50.874;7.028;2022-11-06T08:35:28;101130.16;;;10.21;81.28
71504;BME280;59323;50.874;7.028;2022-11-06T08:37:54;101132.06;;;10.36;80.97
71504;BME280;59323;50.874;7.028;2022-11-06T08:40:19;101133.41;;;10.42;79.31
71504;BME280;59323;50.874;7.028;2022-11-06T08:42:45;101123.66;;;10.57;79.82
71504;BME280;59323;50.874;7.028;2022-11-06T08:45:10;101112.41;;;10.58;78.57
71504;BME280;59323;50.874;7.028;2022-11-06T08:47:36;101122.03;;;10.71;78.75
71504;BME280;59323;50.874;7.028;2022-11-06T08:50:01;101128.63;;;10.90;78.37
71504;BME280;59323;50.874;7.028;2022-11-06T08:52:26;101125.50;;;11.07;76.43
71504;BME280;59323;50.874;7.028;2022-11-06T08:54:52;101125.38;;;11.19;76.79
71504;BME280;59323;50.874;7.028;2022-11-06T08:57:17;101122.34;;;11.24;76.28
71504;BME280;59323;50.874;7.028;2022-11-06T08:59:42;101122.63;;;11.38;75.93
71504;BME280;59323;50.874;7.028;2022-11-06T09:02:12;101109.44;;;11.40;75.19
71504;BME280;59323;50.874;7.028;2022-11-06T09:04:38;101116.53;;;11.45;73.53
71504;BME280;59323;50.874;7.028;2022-11-06T09:07:04;101122.59;;;11.58;74.63
71504;BME280;59323;50.874;7.028;2022-11-06T09:09:29;101108.75;;;11.66;74.16
71504;BME280;59323;50.874;7.028;2022-11-06T09:11:59;101104.50;;;11.69;72.28
71504;BME280;59323;50.874;7.028;2022-11-06T09:14:25;101108.31;;;11.64;72.96
71504;BME280;59323;50.874;7.028;2022-11-06T09:16:54;101103.03;;;11.71;72.88
71504;BME280;59323;50.874;7.028;2022-11-06T09:19:22;101099.72;;;11.82;73.17
71504;BME280;59323;50.874;7.028;2022-11-06T09:21:48;101095.38;;;11.58;72.36
71504;BME280;59323;50.874;7.028;2022-11-06T09:24:13;101085.94;;;11.52;72.89
71504;BME280;59323;50.874;7.028;2022-11-06T09:26:39;101082.97;;;11.60;72.99
71504;BME280;59323;50.874;7.028;2022-11-06T09:29:04;101085.94;;;11.52;73.28
71504;BME280;59323;50.874;7.028;2022-11-06T09:31:30;101078.31;;;11.38;73.25
71504;BME280;59323;50.874;7.028;2022-11-06T09:33:55;101066.66;;;11.18;73.28
71504;BME280;59323;50.874;7.028;2022-11-06T09:36:20;101067.94;;;11.05;73.85
71504;BME280;59323;50.874;7.028;2022-11-06T09:38:46;101061.06;;;10.92;74.55
71504;BME280;59323;50.874;7.028;2022-11-06T09:41:39;101065.53;;;10.80;75.00
71504;BME280;59323;50.874;7.028;2022-11-06T09:46:52;101072.44;;;10.59;76.60
71504;BME280;59323;50.874;7.028;2022-11-06T09:49:38;101063.22;;;10.63;76.21
71504;BME280;59323;50.874;7.028;2022-11-06T09:52:32;101055.34;;;10.58;76.93
71504;BME280;59323;50.874;7.028;2022-11-06T09:55:13;101047.50;;;10.72;76.39
71504;BME280;59323;50.874;7.028;2022-11-06T09:57:44;101063.31;;;10.86;76.10
71504;BME280;59323;50.874;7.028;2022-11-06T10:00:13;101052.56;;;10.93;75.22
71504;BME280;59323;50.874;7.028;2022-11-06T10:02:44;101053.13;;;11.02;74.91
71504;BME280;59323;50.874;7.028;2022-11-06T10:07:46;101038.69;;;11.18;73.76
71504;BME280;59323;50.874;7.028;2022-11-06T10:10:17;101041.59;;;11.28;73.85
71504;BME280;59323;50.874;7.028;2022-11-06T10:15:21;101029.75;;;11.63;72.95
71504;BME280;59323;50.874;7.028;2022-11-06T10:17:55;101020.44;;;11.64;72.18
71504;BME280;59323;50.874;7.028;2022-11-06T10:20:29;101018.91;;;11.66;72.73
71504;BME280;59323;50.874;7.028;2022-11-06T10:23:02;101007.19;;;11.62;72.12
71504;BME280;59323;50.874;7.028;2022-11-06T10:28:18;101023.09;;;11.37;73.58
71504;BME280;59323;50.874;7.028;2022-11-06T10:31:06;101017.47;;;11.27;73.40
71504;BME280;59323;50.874;7.028;2022-11-06T10:33:57;101026.28;;;11.20;73.25
71504;BME280;59323;50.874;7.028;2022-11-06T10:36:30;101022.06;;;11.23;74.25
71504;BME280;59323;50.874;7.028;2022-11-06T10:39:02;101003.31;;;11.18;74.27
71504;BME280;59323;50.874;7.028;2022-11-06T10:41:31;101011.00;;;11.12;74.18
71504;BME280;59323;50.874;7.028;2022-11-06T10:44:05;101003.13;;;11.07;74.79
71504;BME280;59323;50.874;7.028;2022-11-06T10:46:35;100995.34;;;11.05;75.33
71504;BME280;59323;50.874;7.028;2022-11-06T10:49:24;100990.94;;;11.01;74.74
71504;BME280;59323;50.874;7.028;2022-11-06T10:57:19;100966.56;;;10.85;75.70
71504;BME280;59323;50.874;7.028;2022-11-06T10:59:47;100957.06;;;10.75;74.64
71504;BME280;59323;50.874;7.028;2022-11-06T11:04:54;100949.22;;;10.70;75.29
71504;BME280;59323;50.874;7.028;2022-11-06T11:07:20;100952.78;;;10.74;75.03
71504;BME280;59323;50.874;7.028;2022-11-06T11:09:46;100953.22;;;10.76;75.75
71504;BME280;59323;50.874;7.028;2022-11-06T11:12:28;100948.13;;;10.75;75.57
71504;BME280;59323;50.874;7.028;2022-11-06T11:15:24;100946.81;;;10.88;75.29
71504;BME280;59323;50.874;7.028;2022-11-06T11:18:14;100937.47;;;10.86;74.93
71504;BME280;59323;50.874;7.028;2022-11-06T11:20:45;100926.94;;;10.84;74.92
71504;BME280;59323;50.874;7.028;2022-11-06T11:23:29;100919.94;;;10.83;74.19
71504;BME280;59323;50.874;7.028;2022-11-06T11:26:16;100903.13;;;10.77;74.86
71504;BME280;59323;50.874;7.028;2022-11-06T11:28:41;100911.00;;;10.83;74.92
71504;BME280;59323;50.874;7.028;2022-11-06T11:31:11;100911.00;;;10.83;75.55
71504;BME280;59323;50.874;7.028;2022-11-06T11:33:48;100911.47;;;10.88;75.44
71504;BME280;59323;50.874;7.028;2022-11-06T11:36:15;100889.31;;;10.86;74.39
71504;BME280;59323;50.874;7.028;2022-11-06T11:38:41;100884.28;;;10.88;74.84
71504;BME280;59323;50.874;7.028;2022-11-06T11:41:21;100883.94;;;10.90;75.38
71504;BME280;59323;50.874;7.028;2022-11-06T11:44:13;100882.47;;;10.96;75.04
71504;BME280;59323;50.874;7.028;2022-11-06T11:46:53;100870.94;;;11.02;73.23
71504;BME280;59323;50.874;7.028;2022-11-06T11:49:30;100869.88;;;11.07;74.09
71504;BME280;59323;50.874;7.028;2022-11-06T11:51:58;100864.13;;;11.12;73.74
71504;BME280;59323;50.874;7.028;2022-11-06T11:54:27;100847.03;;;11.11;73.86
71504;BME280;59323;50.874;7.028;2022-11-06T11:56:57;100842.00;;;11.14;73.23
71504;BME280;59323;50.874;7.028;2022-11-06T11:59:53;100832.75;;;11.18;73.36
71504;BME280;59323;50.874;7.028;2022-11-06T12:02:27;100831.69;;;11.26;73.06
71504;BME280;59323;50.874;7.028;2022-11-06T12:04:59;100830.22;;;11.32;72.16
71504;BME280;59323;50.874;7.028;2022-11-06T12:07:27;100826.56;;;11.48;71.44
71504;BME280;59323;50.874;7.028;2022-11-06T12:09:54;100825.50;;;11.56;70.18
71504;BME280;59323;50.874;7.028;2022-11-06T12:12:25;100823.03;;;11.73;71.15
71504;BME280;59323;50.874;7.028;2022-11-06T12:15:32;100800.63;;;11.84;69.67
71504;BME280;59323;50.874;7.028;2022-11-06T12:18:05;100782.06;;;11.93;69.48
71504;BME280;59323;50.874;7.028;2022-11-06T12:23:14;100764.94;;;11.92;68.30
71504;BME280;59323;50.874;7.028;2022-11-06T12:25:41;100769.19;;;11.90;67.91
71504;BME280;59323;50.874;7.028;2022-11-06T12:28:14;100767.22;;;11.87;68.18
71504;BME280;59323;50.874;7.028;2022-11-06T12:30:43;100760.56;;;11.84;67.42
71504;BME280;59323;50.874;7.028;2022-11-06T12:33:19;100758.72;;;11.92;66.90
71504;BME280;59323;50.874;7.028;2022-11-06T12:35:56;100760.63;;;11.88;67.12
71504;BME280;59323;50.874;7.028;2022-11-06T12:38:53;100768.50;;;11.96;67.05
71504;BME280;59323;50.874;7.028;2022-11-06T12:41:44;100754.91;;;12.00;67.20
71504;BME280;59323;50.874;7.028;2022-11-06T12:44:12;100744.03;;;12.00;66.70
71504;BME280;59323;50.874;7.028;2022-11-06T12:49:37;100755.69;;;12.00;66.36
71504;BME280;59323;50.874;7.028;2022-11-06T12:52:42;100737.81;;;12.03;66.91
71504;BME280;59323;50.874;7.028;2022-11-06T12:55:24;100732.75;;;12.01;66.67
71504;BME280;59323;50.874;7.028;2022-11-06T13:01:06;100724.13;;;11.96;66.84
71504;BME280;59323;50.874;7.028;2022-11-06T13:06:12;100716.75;;;11.96;66.71
71504;BME280;59323;50.874;7.028;2022-11-06T13:08:48;100719.88;;;11.98;66.23
71504;BME280;59323;50.874;7.028;2022-11-06T13:11:35;100706.63;;;11.97;66.49
71504;BME280;59323;50.874;7.028;2022-11-06T13:17:03;100724.59;;;12.01;65.73
71504;BME280;59323;50.874;7.028;2022-11-06T13:27:35;100713.16;;;11.89;65.76
71504;BME280;59323;50.874;7.028;2022-11-06T13:30:14;100719.00;;;11.87;64.93
71504;BME280;59323;50.874;7.028;2022-11-06T13:32:45;100715.13;;;11.88;65.28
71504;BME280;59323;50.874;7.028;2022-11-06T13:35:17;100699.53;;;11.85;65.73
71504;BME280;59323;50.874;7.028;2022-11-06T13:37:46;100697.19;;;11.84;65.49
71504;BME280;59323;50.874;7.028;2022-11-06T13:43:05;100705.72;;;11.82;64.61
71504;BME280;59323;50.874;7.028;2022-11-06T13:48:33;100681.97;;;11.79;64.49
71504;BME280;59323;50.874;7.028;2022-11-06T13:51:03;100681.84;;;11.72;64.24
71504;BME280;59323;50.874;7.028;2022-11-06T13:53:46;100686.53;;;11.71;63.49
71504;BME280;59323;50.874;7.028;2022-11-06T13:59:21;100690.28;;;11.63;63.33
71504;BME280;59323;50.874;7.028;2022-11-06T14:02:15;100688.28;;;11.57;64.33
71504;BME280;59323;50.874;7.028;2022-11-06T14:07:29;100671.41;;;11.44;63.20
71504;BME280;59323;50.874;7.028;2022-11-06T14:09:56;100669.47;;;11.44;62.34
71504;BME280;59323;50.874;7.028;2022-11-06T14:12:22;100667.81;;;11.36;61.47
71504;BME280;59323;50.874;7.028;2022-11-06T14:14:48;100678.72;;;11.36;61.46
71504;BME280;59323;50.874;7.028;2022-11-06T14:20:05;100683.25;;;11.25;60.71
71504;BME280;59323;50.874;7.028;2022-11-06T14:24:56;100670.78;;;11.24;60.42
71504;BME280;59323;50.874;7.028;2022-11-06T14:32:43;100668.72;;;11.14;61.30
71504;BME280;59323;50.874;7.028;2022-11-06T14:40:34;100669.00;;;11.05;60.06
71504;BME280;59323;50.874;7.028;2022-11-06T14:43:21;100673.59;;;11.01;59.36
71504;BME280;59323;50.874;7.028;2022-11-06T14:48:41;100684.41;;;10.98;60.87
71504;BME280;59323;50.874;7.028;2022-11-06T14:51:10;100682.44;;;10.95;60.26
71504;BME280;59323;50.874;7.028;2022-11-06T14:53:50;100678.16;;;10.94;60.06
71504;BME280;59323;50.874;7.028;2022-11-06T14:56:25;100672.72;;;10.94;59.82
71504;BME280;59323;50.874;7.028;2022-11-06T14:59:31;100667.28;;;10.94;59.26
71504;BME280;59323;50.874;7.028;2022-11-06T15:02:01;100669.16;;;10.90;59.65
71504;BME280;59323;50.874;7.028;2022-11-06T15:04:32;100665.25;;;10.87;59.67
71504;BME280;59323;50.874;7.028;2022-11-06T15:07:13;100670.25;;;10.85;58.62
71504;BME280;59323;50.874;7.028;2022-11-06T15:09:50;100672.94;;;10.82;60.38
71504;BME280;59323;50.874;7.028;2022-11-06T15:12:15;100675.22;;;10.79;60.89
71504;BME280;59323;50.874;7.028;2022-11-06T15:17:10;100667.06;;;10.79;61.13